Va...lentino
Torino (TO) - Giovedý 05/07/2012 - KM 7.000
Pos # Cognome / Nome Tempo Societa Sex Pos Cat Pos Tempo
/Sex /Cat /*reale
1 2 MONASTEROLO ALBERTO  22:23 ITA M 1 ? 1 0.22.23
2 19 BERTOLA ANDREA  24:04 ITA M 2 ? 2 0.24.04
3 966 CANNONE ANDREA  24:33 ITA M 3 ? 3 0.24.33
4 69 DI PRIMA MASSIMO  24:55 ITA M 4 ? 4 0.24.55
5 282 NARONTE DIEGO  25:10 ITA M 5 ? 5 0.25.10
6 143 NAVONE STEFANO  25:12 ITA M 6 ? 6 0.25.12
7 495 GIULIO TONOLO FABRIZIO  25:14 ITA M 7 ? 7 0.25.14
8 504 BARBAROSSA GERARDO  25:17 ITA M 8 ? 8 0.25.17
9 709 FRANSOS MATTEO  25:22 ITA M 9 ? 9 0.25.22
10 108 TUROLLA STEFANO  25:24 ITA M 10 ? 10 0.25.24
11 937 FERRARESE MAURIZIO  25:40 ITA M 11 ? 11 0.25.40
12 13 VOTTERO PATRIZIA  25:50 ITA F 1 ? 1 0.25.50
13 929 MONTAGNESE DARIO  25:53 ITA M 12 ? 12 0.25.53
14 938 MARTINI GIULIO MARIA  26:18 ITA M 13 ? 13 0.26.18
15 682 PIODI ALBERTO  26:21 ITA M 14 ? 14 0.26.21
16 16 GASPERI LORENZO  26:22 ITA M 15 ? 15 0.26.22
17 137 BARBONE MANUELE  26:28 ITA M 16 ? 16 0.26.28
18 75 DELLA DONNA SAVERIO  26:28 ITA M 17 ? 17 0.26.28
19 165 DONDANA ALBERTO  26:32 ITA M 18 ? 18 0.26.32
20 518 ORRU' PAOLO  26:40 ITA M 19 ? 19 0.26.40
21 936 SACCO ENRICO  26:41 ITA M 20 ? 20 0.26.41
22 968 FRIGATO ENRICO  26:44 ITA M 21 ? 21 0.26.44
23 11 VIANO FEDERICA  26:45 ITA F 2 ? 2 0.26.45
24 507 VIGORELLI ANDREA  26:55 ITA M 22 ? 22 0.26.55
25 77 CLARI ALESSANDRO  27:05 ITA M 23 ? 23 0.27.05
26 943 VAUDETTI CARLO  27:06 ITA M 24 ? 24 0.27.06
27 25 BARONE STEFANO  27:12 ITA M 25 ? 25 0.27.12
28 423 CASALEGNO MATTEO  27:20 ITA M 26 ? 26 0.27.20
29 14 CODA DANIELE  27:35 ITA M 27 ? 27 0.27.35
30 935 OLIVERI MATTEO  27:40 ITA M 28 ? 28 0.27.40
31 899 SCIBETTA AGOSTINO  27:40 ITA M 29 ? 29 0.27.40
32 278 MALATESTA ANDREA  27:45 ITA M 30 ? 30 0.27.45
33 10 CAVALLERA NICOL  27:47 ITA F 3 ? 3 0.27.47
34 617 CHESSA GIACOMO  27:48 ITA M 31 ? 31 0.27.48
35 895 PALLADINO ROSARIO  27:49 ITA M 32 ? 32 0.27.49
36 82 CARBONE FABIO  27:49 ITA M 33 ? 33 0.27.49
37 132 CHICCO PAOLO  27:51 ITA M 34 ? 34 0.27.51
38 961 BIORA GABRIELE  27:54 ITA M 35 ? 35 0.27.54
39 592 GIOVANNITTI GIOVANNELLA  27:54 ITA F 4 ? 4 0.27.54
40 104 GALVAGNO UMBERTO  27:56 ITA M 36 ? 36 0.27.56
41 969 CESTE MARCO  27:58 ITA M 37 ? 37 0.27.58
42 83 VINESIA CORRADO  27:59 ITA M 38 ? 38 0.27.59
43 246 MARCELLINO ALBERTO  28:00 ITA M 39 ? 39 0.28.00
44 496 ROLANDO MATTEO  28:07 ITA M 40 ? 40 0.28.07
45 34 CORIO PIERO  28:16 ITA M 41 ? 41 0.28.16
46 144 NAVONE GIORGIO  28:16 ITA M 42 ? 42 0.28.16
47 202 BERNO FABRIZIO  28:18 ITA M 43 ? 43 0.28.18
48 29 TUFANI ALESSANDRO  28:19 ITA M 44 ? 44 0.28.19
49 502 BAGNASCO FRANCO  28:19 ITA M 45 ? 45 0.28.19
50 975 VISAGGI SILVIA  28:25 ITA F 5 ? 5 0.28.25
51 824 PANARESE DARIO  28:25 ITA M 46 ? 46 0.28.25
52 769 NEGRINI ANDREA  28:32 ITA M 47 ? 47 0.28.32
53 166 NUDO LUIGI  28:33 ITA M 48 ? 48 0.28.33
54 133 DE GIUSEPPE LORENZO  28:34 ITA M 49 ? 49 0.28.34
55 3 SCIARRILLO ANTONIO  28:35 ITA M 50 ? 50 0.28.35
56 581 MERLETTI VINCENZO  28:37 ITA M 51 ? 51 0.28.37
57 408 BERTOLINO RICCARDO  28:39 ITA M 52 ? 52 0.28.39
58 399 NAVILLI EZIO  28:40 ITA M 53 ? 53 0.28.40
59 517 FILINGERI MAURO  28:42 ITA M 54 ? 54 0.28.42
60 927 CAPOMOLLA SIMONE  28:44 ITA M 55 ? 55 0.28.44
61 870 CARGNINO SIMONA  28:45 ITA F 6 ? 6 0.28.45
62 588 ROSSO ALBERTO  28:48 ITA M 56 ? 56 0.28.48
63 128 MONCHIERO ALBERTO  28:57 ITA M 57 ? 57 0.28.57
64 176 LEVI TOMMASO  28:58 ITA M 58 ? 58 0.28.58
65 40 DONADIO DAVIDE  28:59 ITA M 59 ? 59 0.28.59
66 731 BACCI FABIO  29:00 ITA M 60 ? 60 0.29.00
67 745 VENTURA CALOGERO  29:01 ITA M 61 ? 61 0.29.01
68 869 CARGNINO ANDREA  29:02 ITA M 62 ? 62 0.29.02
69 80 AUDONE CARLO  29:03 ITA M 63 ? 63 0.29.03
70 12 L'EPEE SARAH  29:05 ITA F 7 ? 7 0.29.05
71 683 CALOSSO LORENZO  29:09 ITA M 64 ? 64 0.29.09
72 9 BERTOLDINI LORENZO  29:09 ITA M 65 ? 65 0.29.09
73 103 FOLEGATTI LUCA  29:10 ITA M 66 ? 66 0.29.10
74 998 PASQUARELLI ALBERTO  29:11 ITA M 67 ? 67 0.29.11
75 51 BOFFA GIANNI  29:18 ITA M 68 ? 68 0.29.18
76 556 BONISOLI ANDREA  29:23 ITA M 69 ? 69 0.29.23
77 620 MILETTO ENRICO  29:25 ITA M 70 ? 70 0.29.25
78 139 PIATTI MAURO  29:26 ITA M 71 ? 71 0.29.26
79 833 CIOTOLA FERDINANDO  29:29 ITA M 72 ? 72 0.29.29
80 837 LEO CARLO  29:29 ITA M 73 ? 73 0.29.29
81 433 MARCELLO GIORGIO  29:30 ITA M 74 ? 74 0.29.30
82 142 CAMERA MARCO  29:32 ITA M 75 ? 75 0.29.32
83 39 PALLADINO GIANLUCA  29:33 ITA M 76 ? 76 0.29.33
84 102 NICOLA ROBERTO  29:34 ITA M 77 ? 77 0.29.34
85 36 CECCHI ELENA  29:34 ITA F 8 ? 8 0.29.34
86 897 VINCI LUIGI  29:34 ITA M 78 ? 78 0.29.34
87 842 VISNOGNIA ANGIOLINO  29:34 ITA M 79 ? 79 0.29.34
88 44 GRANELLO FRANCO  29:37 ITA M 80 ? 80 0.29.37
89 74 BISIO MARCO  29:37 ITA M 81 ? 81 0.29.37
90 23 MORBIDELLI FEDERICO  29:45 ITA M 82 ? 82 0.29.45
91 525 PASCHETTA MAURO  29:45 ITA M 83 ? 83 0.29.45
92 555 RUFFA WALTER  29:49 ITA M 84 ? 84 0.29.49
93 328 LASELVA PAOLO  29:50 ITA M 85 ? 85 0.29.50
94 840 MASTANDREA FRANCESCO  29:51 ITA M 86 ? 86 0.29.51
95 373 DUTTO MASSIMO  29:52 ITA M 87 ? 87 0.29.52
96 835 SPOSATO ALDO MAURIZIO  29:53 ITA M 88 ? 88 0.29.53
97 35 BARETTA DARIO  29:56 ITA M 89 ? 89 0.29.56
98 607 BISAGNI IVANO  29:57 ITA M 90 ? 90 0.29.57
99 898 VINCI DAVIDE  30:00 ITA M 91 ? 91 0.30.00
100 931 SIRI ANDREA  30:00 ITA M 92 ? 92 0.30.00
101 149 VOGLIOTTI AUGUSTO  30:03 ITA M 93 ? 93 0.30.03
102 323 CORDANO SERGIO  30:05 ITA M 94 ? 94 0.30.05
103 691 PETRONGOLO AUGUSTO  30:07 ITA M 95 ? 95 0.30.07
104 294 FAVATA GIANLUCA  30:08 ITA M 96 ? 96 0.30.08
105 136 ARNOLFO DANIELE  30:10 ITA M 97 ? 97 0.30.10
106 853 BULZONI FABRIZIO  30:12 ITA M 98 ? 98 0.30.12
107 856 BERNASCONI LUCA888  30:14 ITA M 99 ? 99 0.30.14
108 841 MANDOLINI MICHELE  30:16 ITA M 100 ? 100 0.30.16
109 509 BUSSO ALBERTO  30:17 ITA M 101 ? 101 0.30.17
110 611 RICCHIUTI ANDREA  30:17 ITA M 102 ? 102 0.30.17
111 54 DE PAOLI SILVANO  30:18 ITA M 103 ? 103 0.30.18
112 542 CONTATO GIOVANNI  30:18 ITA M 104 ? 104 0.30.18
113 513 MILANO ANDREA  30:21 ITA M 105 ? 105 0.30.21
114 335 LISO GIOVANNI  30:22 ITA M 106 ? 106 0.30.22
115 92 SILICATO ORESTE  30:24 ITA M 107 ? 107 0.30.24
116 819 FERRERO LUCIO  30:24 ITA M 108 ? 108 0.30.24
117 722 FIORITO PAOLO  30:25 ITA M 109 ? 109 0.30.25
118 526 MELLIA GIUSEPPE  30:26 ITA M 110 ? 110 0.30.26
119 70 IACOVELLI ALESSANDRO  30:26 ITA M 111 ? 111 0.30.26
120 93 PIATTI PAOLO  30:27 ITA M 112 ? 112 0.30.27
121 444 DEMILITO ENZO  30:28 ITA M 113 ? 113 0.30.28
122 812 MICHELIN LUCA  30:28 ITA M 114 ? 114 0.30.28
123 85 FRANCIA FEDERICO  30:29 ITA M 115 ? 115 0.30.29
124 381 SINIGAGLIA ROBERTO  30:29 ITA M 116 ? 116 0.30.29
125 582 MICCICHE' PASQUALE  30:30 ITA M 117 ? 117 0.30.30
126 443 LUPIERI LUCA  30:32 ITA M 118 ? 118 0.30.32
127 55 BORGOGNO MAURIZIO  30:33 ITA M 119 ? 119 0.30.33
128 49 MATTANA MASSIMO  30:34 ITA M 120 ? 120 0.30.34
129 962 SERVETTI GIUSEPPE  30:34 ITA M 121 ? 121 0.30.34
130 57 PANATTONI ENRICO  30:34 ITA M 122 ? 122 0.30.34
131 512 LA IACONA RICCARDO  30:37 ITA M 123 ? 123 0.30.37
132 337 MOLINARI ALBERTO  30:37 ITA M 124 ? 124 0.30.37
133 941 MORELLO MASSIMO  30:37 ITA M 125 ? 125 0.30.37
134 456 ROBAZZA ANTONIO  30:38 ITA M 126 ? 126 0.30.38
135 201 CASETTA MARCO  30:38 ITA M 127 ? 127 0.30.38
136 802 MONGINI ALESSANDRO  30:39 ITA M 128 ? 128 0.30.39
137 590 GRIBAUDO SIMONE  30:43 ITA M 129 ? 129 0.30.43
138 603 INNELLA CRISTIAN  30:43 ITA M 130 ? 130 0.30.43
139 145 SCRIVANI GIOVANNI  30:46 ITA M 131 ? 131 0.30.46
140 541 PARLA RENZO  30:46 ITA M 132 ? 132 0.30.46
141 18 RENACCO FABRIZIO  30:46 ITA M 133 ? 133 0.30.46
142 312 BRUNATTO LUCIANO  30:50 ITA M 134 ? 134 0.30.50
143 852 CAGNO PAOLO  30:50 ITA M 135 ? 135 0.30.50
144 550 CASSO ALESSANDRO  30:52 ITA M 136 ? 136 0.30.52
145 693 BUSATTA GIORGIO  30:52 ITA M 137 ? 137 0.30.52
146 591 DONATO GIACOMO  30:54 ITA M 138 ? 138 0.30.54
147 825 DE GIUSEPPE DARIO  30:56 ITA M 139 ? 139 0.30.56
148 30 PEROTTI MAURO  30:57 ITA M 140 ? 140 0.30.57
149 101 DORNA METZGER PAOLO  30:58 ITA M 141 ? 141 0.30.58
150 147 RISSONE MARCO  30:58 ITA M 142 ? 142 0.30.58
151 635 TROMBETTA GIULIA  30:58 ITA F 9 ? 9 0.30.58
152 501 ERRICO MARIO FERNANDO  31:01 ITA M 143 ? 143 0.31.01
153 524 ISAIA MARCO  31:03 ITA M 144 ? 144 0.31.03
154 427 BONISOLI ABRAMO EUGENIO  31:04 ITA M 145 ? 145 0.31.04
155 471 CHETTA ANTONIO  31:09 ITA M 146 ? 146 0.31.09
156 717 COLLA MARCELLO  31:09 ITA M 147 ? 147 0.31.09
157 452 BERGANTIN ALDO  31:12 ITA M 148 ? 148 0.31.12
158 152 TREVISANI MASSIMO  31:14 ITA M 149 ? 149 0.31.14
159 484 VALLE ANTONIO  31:14 ITA M 150 ? 150 0.31.14
160 88 DELLA DONNA STEFANO  31:14 ITA M 151 ? 151 0.31.14
161 808 DELVINO FEDERICA  31:15 ITA F 10 ? 10 0.31.15
162 781 MEZZA LIRA LUCA  31:15 ITA M 152 ? 152 0.31.15
163 771 DI GIOIA CARLO  31:16 ITA M 153 ? 153 0.31.16
164 106 IUNCO MICHELE  31:17 ITA M 154 ? 154 0.31.17
165 280 FORNELLO ENRICO  31:19 ITA M 155 ? 155 0.31.19
166 160 BELTRAMO NADIA  31:19 ITA F 11 ? 11 0.31.19
167 942 CLEMENTELLI DAVIDE  31:20 ITA M 156 ? 156 0.31.20
168 612 RIZZA GIUSEPPE  31:20 ITA M 157 ? 157 0.31.20
169 571 BERTACCHI STEFANIA  31:21 ITA F 12 ? 12 0.31.21
170 750 D'ONOFRIO SALVATORE  31:21 ITA M 158 ? 158 0.31.21
171 933 CIRIO MICHELE  31:25 ITA M 159 ? 159 0.31.25
172 277 PANARELLI PIETRO  31:25 ITA M 160 ? 160 0.31.25
173 621 PIACENZA GIUSEPPE  31:26 ITA M 161 ? 161 0.31.26
174 689 MARINO GIANLUIGI  31:26 ITA M 162 ? 162 0.31.26
175 951 GAMBA ROBERTO  31:27 ITA M 163 ? 163 0.31.27
176 169 BOSIO VALERIO  31:27 ITA M 164 ? 164 0.31.27
177 245 CAMERANA VITTORIA  31:27 ITA F 13 ? 13 0.31.27
178 784 TESAURO DANIELE  31:27 ITA M 165 ? 165 0.31.27
179 785 TESAURO DONATELLA  31:28 ITA F 14 ? 14 0.31.28
180 17 CARUSO CORRADO  31:29 ITA M 166 ? 166 0.31.29
181 365 SOBRERO FRANCO  31:29 ITA M 167 ? 167 0.31.29
182 801 ACETO FEDERICO  31:30 ITA M 168 ? 168 0.31.30
183 487 BERTACCINI STAUROS  31:31 ITA M 169 ? 169 0.31.31
184 793 MAGAROTTO GIANLUCA  31:32 ITA M 170 ? 170 0.31.32
185 24 MALAGNINI MAURO  31:32 ITA M 171 ? 171 0.31.32
186 151 MARTINO MASSIMILIANO  31:32 ITA M 172 ? 172 0.31.32
187 896 FERRANDO PIERO  31:33 ITA M 173 ? 173 0.31.33
188 320 PELLEGRINO ELENA  31:33 ITA F 15 ? 15 0.31.33
189 321 MATTUTINO MARCO  31:34 ITA M 174 ? 174 0.31.34
190 608 NEJROTTI ANDREA  31:36 ITA M 175 ? 175 0.31.36
191 48 ROVEJ STEFANO  31:37 ITA M 176 ? 176 0.31.37
192 97 CIPULLO DARIO  31:37 ITA M 177 ? 177 0.31.37
193 489 COMMITO ROBERTO  31:38 ITA M 178 ? 178 0.31.38
194 821 CARTA GIOVANNI  31:39 ITA M 179 ? 179 0.31.39
195 839 LETA ANTONINO  31:40 ITA M 180 ? 180 0.31.40
196 483 DI VICO GIUSEPPE  31:46 ITA M 181 ? 181 0.31.46
197 274 PANARELLI ALESSANDRO  31:46 ITA M 182 ? 182 0.31.46
198 669 MASSA STEFANO  31:47 ITA M 183 ? 183 0.31.47
199 701 SAVINO ANGELO  31:47 ITA M 184 ? 184 0.31.47
200 279 IONA ANTONIO  31:53 ITA M 185 ? 185 0.31.53
201 511 CALLEGARO LUIGI  31:54 ITA M 186 ? 186 0.31.54
202 330 DE ROSA MASSIMO  31:55 ITA M 187 ? 187 0.31.55
203 749 CONSOLMAGNO SERGIO  32:03 ITA M 188 ? 188 0.32.03
204 15 CERABONA DOMENICO  32:06 ITA M 189 ? 189 0.32.06
205 454 NORZI WALTER  32:06 ITA M 190 ? 190 0.32.06
206 928 MELLO ALESSANDRO  32:07 ITA M 191 ? 191 0.32.07
207 84 CAPECELATRO FABIO  32:07 ITA M 192 ? 192 0.32.07
208 26 PERINETTO RICCARDO  32:08 ITA M 193 ? 193 0.32.08
209 558 VISCONTI ALESSIO  32:09 ITA M 194 ? 194 0.32.09
210 20 NAVONE TORTORELLI FRANCESCO  32:13 ITA M 195 ? 195 0.32.13
211 522 CACARRONE GABRIELE  32:14 ITA M 196 ? 196 0.32.14
212 453 CASALI SILVIA  32:15 ITA F 16 ? 16 0.32.15
213 932 MODO IGNAZIO  32:15 ITA M 197 ? 197 0.32.15
214 119 GIAMPAOLO GIOVANNI  32:16 ITA M 198 ? 198 0.32.16
215 96 VAGNONE MICHELE  32:18 ITA M 199 ? 199 0.32.18
216 342 LANFRANCO MAURIZIO  32:19 ITA M 200 ? 200 0.32.19
217 146 DIRUTIGLIANO DIEGO  32:19 ITA M 201 ? 201 0.32.19
218 714 MARRARI GIUSEPPE  32:23 ITA M 202 ? 202 0.32.23
219 90 ARCOSTANZO LUCA  32:27 ITA M 203 ? 203 0.32.27
220 383 BRUNO FEDERICO  32:28 ITA M 204 ? 204 0.32.28
221 138 CREMA ALESSANDRO  32:33 ITA M 205 ? 205 0.32.33
222 290 CIOFFI ALFONSO  32:36 ITA M 206 ? 206 0.32.36
223 357 IMPERIALE WILMA  32:36 ITA F 17 ? 17 0.32.36
224 257 FANCIULLO FABIO  32:36 ITA M 207 ? 207 0.32.36
225 734 AVIDANO MARCO DOMENICO  32:38 ITA M 208 ? 208 0.32.38
226 99 TIRELLO PAOLO  32:40 ITA M 209 ? 209 0.32.40
227 251 TESTA CLAUDIO  32:42 ITA M 210 ? 210 0.32.42
228 716 ESPOSITO ANDREA  32:42 ITA M 211 ? 211 0.32.42
229 318 GARBACCIO CARLO  32:42 ITA M 212 ? 212 0.32.42
230 533 PAVIOLO MARCO  32:43 ITA M 213 ? 213 0.32.43
231 260 RAGNI LORENZO  32:43 ITA M 214 ? 214 0.32.43
232 881 FANELLI DAVIDE  32:45 ITA M 215 ? 215 0.32.45
233 287 GHIGO PIETRO LUIGI  32:50 ITA M 216 ? 216 0.32.50
234 871 CORELLI FEDERICO  32:54 ITA M 217 ? 217 0.32.54
235 219 BOGGIO MARZET GIANCARLO  32:55 ITA M 218 ? 218 0.32.55
236 696 BRONDI MAURO  32:55 ITA M 219 ? 219 0.32.55
237 728 FRATIANNI ALESSIA  32:56 ITA F 18 ? 18 0.32.56
238 391 PARLATORE ENRICO  32:57 ITA M 220 ? 220 0.32.57
239 729 CHIEREGATI CRISTIAN  32:57 ITA M 221 ? 221 0.32.57
240 164 BASSINO LUCA  32:57 ITA M 222 ? 222 0.32.57
241 455 PICCHIO ANTONIO  32:57 ITA M 223 ? 223 0.32.57
242 873 PAVESE CARLO  32:58 ITA M 224 ? 224 0.32.58
243 243 CENCIO DARIO  32:59 ITA M 225 ? 225 0.32.59
244 445 GALDY SALVATORE  32:59 ITA M 226 ? 226 0.32.59
245 782 BARBERI FRANCESCO  33:01 ITA M 227 ? 227 0.33.01
246 795 GUIN VALTER  33:02 ITA M 228 ? 228 0.33.02
247 37 GOBETTO MARCO  33:03 ITA M 229 ? 229 0.33.03
248 377 REVALOR ALBERTO  33:04 ITA M 230 ? 230 0.33.04
249 978 VERNASSA DARIO  33:04 ITA M 231 ? 231 0.33.04
250 173 TARICCO MASSIMO  33:05 ITA M 232 ? 232 0.33.05
251 47 RISSO LORENZO  33:07 ITA M 233 ? 233 0.33.07
252 831 PIRILLO IVAN  33:07 ITA M 234 ? 234 0.33.07
253 386 CALORA ANTONIO  33:08 ITA M 235 ? 235 0.33.08
254 562 LANDI ANDREA  33:10 ITA M 236 ? 236 0.33.10
255 538 NATALE EDOARDO  33:11 ITA M 237 ? 237 0.33.11
256 563 PARADISO NATALIA  33:11 ITA F 19 ? 19 0.33.11
257 964 CASALEGNO MARCO  33:12 ITA M 238 ? 238 0.33.12
258 832 PILORCI ALESSANDRO  33:12 ITA M 239 ? 239 0.33.12
259 301 CAMERANO GIMMI  33:13 ITA M 240 ? 240 0.33.13
260 222 SILVESTRI STEFANO  33:13 ITA M 241 ? 241 0.33.13
261 724 PERRA ALDO  33:14 ITA M 242 ? 242 0.33.14
262 460 BORSETTO ELISA  33:14 ITA F 20 ? 20 0.33.14
263 162 PECORARO LUCA  33:14 ITA M 243 ? 243 0.33.14
264 602 FEYLES JACQUELINE  33:14 ITA F 21 ? 21 0.33.14
265 600 FEYLES GIOVANNI  33:14 ITA M 244 ? 244 0.33.14
266 91 TONDO RENATO  33:16 ITA M 245 ? 245 0.33.16
267 806 BECCHIO MAURO  33:16 ITA M 246 ? 246 0.33.16
268 199 SICARI ANDREA  33:16 ITA M 247 ? 247 0.33.16
269 989 CIGAINA ANTONIO  33:17 ITA M 248 ? 248 0.33.17
270 545 MARCHISIO STEFANO  33:19 ITA M 249 ? 249 0.33.19
271 543 TEMELLINI FILIPPO  33:19 ITA M 250 ? 250 0.33.19
272 238 GRASSI DAVIDE  33:20 ITA M 251 ? 251 0.33.20
273 392 PERA GIUSEPPE  33:20 ITA M 252 ? 252 0.33.20
274 568 BALZAROTTI ANDREA  33:21 ITA M 253 ? 253 0.33.21
275 211 RINDONA SALVATORE  33:23 ITA M 254 ? 254 0.33.23
276 81 FESTA LUCA  33:23 ITA M 255 ? 255 0.33.23
277 680 MOSCHETTI MARIO  33:24 ITA M 256 ? 256 0.33.24
278 834 SONZOGNI STEFANO  33:25 ITA M 257 ? 257 0.33.25
279 838 NUNZI MICHELE  33:25 ITA M 258 ? 258 0.33.25
280 924 AIMAR CESARE  33:25 ITA M 259 ? 259 0.33.25
281 828 DELSOLE ANDREA  33:26 ITA M 260 ? 260 0.33.26
282 564 FORNENGO PAOLO  33:27 ITA M 261 ? 261 0.33.27
283 449 SCIANNA FABIO  33:28 ITA M 262 ? 262 0.33.28
284 557 MARTEN PEROLINO GIULIANA  33:28 ITA F 22 ? 22 0.33.28
285 131 BUFFA ELISA  33:29 ITA F 23 ? 23 0.33.29
286 923 MELOTTI STEFANO  33:29 ITA M 263 ? 263 0.33.29
287 111 POLETTO GIULIANO  33:30 ITA M 264 ? 264 0.33.30
288 50 CIVALLERI MARCO  33:30 ITA M 265 ? 265 0.33.30
289 56 CUCCUREDDU MARCO  33:31 ITA M 266 ? 266 0.33.31
290 921 FAGGIAN ROBERTO  33:31 ITA M 267 ? 267 0.33.31
291 885 SAELI ALESSANDRO  33:32 ITA M 268 ? 268 0.33.32
292 78 LEZZI GIOVANNA  33:33 ITA F 24 ? 24 0.33.33
293 154 VOGLIOTTI EDOARDO  33:33 ITA M 269 ? 269 0.33.33
294 100 ROSSO ROBERTO  33:34 ITA M 270 ? 270 0.33.34
295 172 FORNUTO DONATO  33:36 ITA M 271 ? 271 0.33.36
296 992 PIROZZI GIULIANO  33:38 ITA M 272 ? 272 0.33.38
297 519 AMERIO MARCO  33:40 ITA M 273 ? 273 0.33.40
298 776 MOLIN BROSA  33:40 ITA F 25 ? 25 0.33.40
299 984 BARBERIS ALDO  33:41 ITA M 274 ? 274 0.33.41
300 65 SCOTTI UMBERTO  33:43 ITA M 275 ? 275 0.33.43
301 699 BOLLANI FABRIZIO  33:46 ITA M 276 ? 276 0.33.46
302 223 GAUDIOSO LUIGI  33:48 ITA M 277 ? 277 0.33.48
303 790 ALEMANNO FRANCESCO  33:49 ITA M 278 ? 278 0.33.49
304 493 FONSATO EMANUELE  33:51 ITA M 279 ? 279 0.33.51
305 436 SORBONE GIUSEPPE  33:52 ITA M 280 ? 280 0.33.52
306 972 GIOIA EMANUELE  33:53 ITA M 281 ? 281 0.33.53
307 53 PEDUSSIA PIERMARIO  33:54 ITA M 282 ? 282 0.33.54
308 364 GARRONE GIANCARLO  33:54 ITA M 283 ? 283 0.33.54
309 430 CAMPAGNA MARIO  33:55 ITA M 284 ? 284 0.33.55
310 934 LOMBARDI GIUSEPPE  33:55 ITA M 285 ? 285 0.33.55
311 170 PERGA WILMER  33:56 ITA M 286 ? 286 0.33.56
312 820 BARTOLINI LUCA  33:57 ITA M 287 ? 287 0.33.57
313 485 DELLA ROCCA MARTA  33:57 ITA F 26 ? 26 0.33.57
314 22 TAMBURELLI LAURA  34:00 ITA F 27 ? 27 0.34.00
315 393 BOERO ENRICO  34:00 ITA M 288 ? 288 0.34.00
316 510 AUDI LUCA MARIA  34:01 ITA M 289 ? 289 0.34.01
317 788 VIANELLI ALBERTO  34:02 ITA M 290 ? 290 0.34.02
318 733 CARSI MICHELA  34:03 ITA F 28 ? 28 0.34.03
319 572 DIMITRI ANTONIO  34:04 ITA M 291 ? 291 0.34.04
320 993 SARACCO GIOVANNI  34:05 ITA M 292 ? 292 0.34.05
321 995 ARRICHIELLO GIOVANNI  34:07 ITA M 293 ? 293 0.34.07
322 529 UGGE' ALESSANDRO  34:10 ITA M 294 ? 294 0.34.10
323 492 OLEARO MASSIMILIANO  34:11 ITA M 295 ? 295 0.34.11
324 234 PALMISANO DAVIDE  34:12 ITA M 296 ? 296 0.34.12
325 690 DOMENINO GIORGIO  34:13 ITA M 297 ? 297 0.34.13
326 21 LELLA STEFANO  34:15 ITA M 298 ? 298 0.34.15
327 122 OTTONE PAOLO  34:16 ITA M 299 ? 299 0.34.16
328 123 GIANESE MONICA  34:17 ITA F 29 ? 29 0.34.17
329 700 REGGIO GIUSEPPE  34:17 ITA M 300 ? 300 0.34.17
330 766 VETTORATO ANDREA  34:18 ITA M 301 ? 301 0.34.18
331 640 BELUSCO BARBARA  34:19 ITA F 30 ? 30 0.34.19
332 587 POZZATI ELISA  34:20 ITA F 31 ? 31 0.34.20
333 259 DABBENE CRISTIAN  34:23 ITA M 302 ? 302 0.34.23
334 880 MARTINETTO MARCO  34:23 ITA M 303 ? 303 0.34.23
335 130 CAVINA FULVIO  34:28 ITA M 304 ? 304 0.34.28
336 948 DIVERIO DAVIDE  34:28 ITA M 305 ? 305 0.34.28
337 68 MIGLIARDI RENATA  34:35 ITA F 32 ? 32 0.34.35
338 767 PALENZONA ELENA  34:37 ITA F 33 ? 33 0.34.37
339 991 TESSE GIANNI  34:38 ITA M 306 ? 306 0.34.38
340 796 MAGGIO FABIO  34:42 ITA M 307 ? 307 0.34.42
341 822 FACCIANO DARIO  34:42 ITA M 308 ? 308 0.34.42
342 599 DONDI RAFFAELLA  34:44 ITA F 34 ? 34 0.34.44
343 589 DI CURIA MARCO  34:51 ITA M 309 ? 309 0.34.51
344 940 GIULIANO ANDREA  34:53 ITA M 310 ? 310 0.34.53
345 422 ROCUZZO MARIO  34:58 ITA M 311 ? 311 0.34.58
346 271 TANESE MARCO  34:58 ITA M 312 ? 312 0.34.58
347 746 MANDARANO VITO  34:59 ITA M 313 ? 313 0.34.59
348 725 PETROSINO GIOVANNA  35:00 ITA F 35 ? 35 0.35.00
349 250 DICORATO ANTONIO  35:01 ITA M 314 ? 314 0.35.01
350 325 VILLA PIERCARLO  35:01 ITA M 315 ? 315 0.35.01
351 431 PERINO SILVIO  35:02 ITA M 316 ? 316 0.35.02
352 850 FERRERO GIACOMO  35:03 ITA M 317 ? 317 0.35.03
353 540 VIARIZZO LULI  35:06 ITA F 36 ? 36 0.35.06
354 94 SELLAN LAURA  35:09 ITA F 37 ? 37 0.35.09
355 665 GABRIEZ SIMION  35:11 ITA M 318 ? 318 0.35.11
356 668 PISANI ENZO  35:11 ITA M 319 ? 319 0.35.11
357 148 NAVARINO FILIPPO  35:12 ITA M 320 ? 320 0.35.12
358 845 LEONE STEFANO  35:12 ITA M 321 ? 321 0.35.12
359 846 RIGANO UGO  35:13 ITA M 322 ? 322 0.35.13
360 331 BARAGLI CESARE  35:13 ITA M 323 ? 323 0.35.13
361 118 NICOLARDI STEFANIA  35:18 ITA F 38 ? 38 0.35.18
362 87 NAVIGLIO MASSIMILIANO  35:18 ITA M 324 ? 324 0.35.18
363 593 FELISIO ALESSANDRO  35:19 ITA M 325 ? 325 0.35.19
364 760 MENNURI MASSIMO  35:19 ITA M 326 ? 326 0.35.19
365 415 SCAVIZZI ANDREA  35:19 ITA M 327 ? 327 0.35.19
366 73 ANSELMO PIERGIUSEPPE  35:20 ITA M 328 ? 328 0.35.20
367 561 LANA ELISABETTA  35:20 ITA F 39 ? 39 0.35.20
368 159 CIAUDANO GIUSEPPE  35:20 ITA M 329 ? 329 0.35.20
369 32 BERTONI EDOARDO  35:24 ITA M 330 ? 330 0.35.24
370 916 FORNASERO STEFANO  35:25 ITA M 331 ? 331 0.35.25
371 31 BERTONI PAOLO  35:25 ITA M 332 ? 332 0.35.25
372 134 QUAGLIA GIUSEPPE  35:27 ITA M 333 ? 333 0.35.27
373 153 CARTA GIOVANNI  35:28 ITA M 334 ? 334 0.35.28
374 135 BERRONE DANIELE  35:29 ITA M 335 ? 335 0.35.29
375 126 BERRONE PAOLO  35:29 ITA M 336 ? 336 0.35.29
376 441 PERUZZO LUCA  35:30 ITA M 337 ? 337 0.35.30
377 62 BONO FRANCESCA  35:30 ITA F 40 ? 40 0.35.30
378 336 PIATTO ELIA  35:30 ITA M 338 ? 338 0.35.30
379 171 RAMONDETTI DARIO  35:30 ITA F 41 ? 41 0.35.30
380 334 PARALUPPI GIANLUCA  35:31 ITA M 339 ? 339 0.35.31
381 352 MONNI MASSIMILIANO  35:31 ITA M 340 ? 340 0.35.31
382 333 PALETTO GIANLUCA  35:31 ITA M 341 ? 341 0.35.31
383 732 ROCCAMATISI SALVATORE  35:34 ITA M 342 ? 342 0.35.34
384 339 TESTA RICCARDO  35:39 ITA M 343 ? 343 0.35.39
385 778 GRAZIANO GIANLUCA  35:44 ITA M 344 ? 344 0.35.44
386 340 PALETTO FABRIZIO  35:45 ITA M 345 ? 345 0.35.45
387 285 MAGGIORE PAOLO  35:48 ITA M 346 ? 346 0.35.48
388 167 TRUCATTO MONICA  35:48 ITA F 42 ? 42 0.35.48
389 480 TUDISCO STEFANO  35:48 ITA M 347 ? 347 0.35.48
390 288 CERRUTI STEFANO  35:49 ITA M 348 ? 348 0.35.49
391 643 PANNUNZIO MARINO  35:49 ITA M 349 ? 349 0.35.49
392 58 GUALANDI FULVIA  35:49 ITA F 43 ? 43 0.35.49
393 719 BARBERO MARCO  35:53 ITA M 350 ? 350 0.35.53
394 844 VIGNA DANIELE PAOLO  35:55 ITA M 351 ? 351 0.35.55
395 358 BONETTA SERGIO  35:55 ITA M 352 ? 352 0.35.55
396 727 PENE VIDARI FRANCESCO  36:02 ITA M 353 ? 353 0.36.02
397 410 BALIA SONIA  36:03 ITA F 44 ? 44 0.36.03
398 235 CAPEZZUTO FABIO  36:10 ITA M 354 ? 354 0.36.10
399 723 BERGAMIN ANGELO  36:10 ITA M 355 ? 355 0.36.10
400 67 MARTINA ROBERTA  36:10 ITA F 45 ? 45 0.36.10
401 435 SCAGLIA MARIO  36:13 ITA M 356 ? 356 0.36.13
402 434 MANZO MAURO ANDREA  36:13 ITA M 357 ? 357 0.36.13
403 109 MONGE LAUREANA  36:14 ITA F 46 ? 46 0.36.14
404 738 CENNA CLAUDIO  36:14 ITA M 358 ? 358 0.36.14
405 692 DEDIU GABRIELA  36:15 ITA F 47 ? 47 0.36.15
406 597 RIGHETTONI F  36:17 ITA M 359 ? 359 0.36.17
407 268 D'ERRICO MAURIZIO  36:17 ITA M 360 ? 360 0.36.17
408 920 BERBOTTO ALDO  36:18 ITA M 361 ? 361 0.36.18
409 356 REMONDINO MASSIMO  36:19 ITA M 362 ? 362 0.36.19
410 432 TRIOLET MARCO  36:19 ITA M 363 ? 363 0.36.19
411 859 MENNUNI LUCA  36:19 ITA M 364 ? 364 0.36.19
412 244 NICOLA DANIELE  36:20 ITA M 365 ? 365 0.36.20
413 979 GERARDO D'ELIA  36:21 ITA M 366 ? 366 0.36.21
414 233 COMPAGNO MARA  36:22 ITA F 48 ? 48 0.36.22
415 60 OLIVA ALESSANDRO  36:24 ITA M 367 ? 367 0.36.24
416 326 RISSO CLAUDIO  36:25 ITA M 368 ? 368 0.36.25
417 155 PETRARULO GABRIELE  36:26 ITA M 369 ? 369 0.36.26
418 909 LABANCA NICO  36:27 ITA M 370 ? 370 0.36.27
419 307 LOMBARDI MASSIMO  36:29 ITA M 371 ? 371 0.36.29
420 41 VALERIO MARCO  36:29 ITA M 372 ? 372 0.36.29
421 516 VENTRICE PASQUALE  36:32 ITA M 373 ? 373 0.36.32
422 107 IUNCO ALESSANDRO  36:32 ITA M 374 ? 374 0.36.32
423 440 AGOSTINO GIUSEPPE  36:33 ITA M 375 ? 375 0.36.33
424 549 MURARO MURIEL  36:33 ITA M 376 ? 376 0.36.33
425 366 ALBERTONE ANNA MARIA  36:36 ITA F 49 ? 49 0.36.36
426 552 GENCHI GIOVANNI  36:37 ITA M 377 ? 377 0.36.37
427 926 ODASSO LUIGI  36:39 ITA M 378 ? 378 0.36.39
428 368 DEGIOVANNI ENRICA  36:39 ITA F 50 ? 50 0.36.39
429 203 DEJORNA SERGIO  36:40 ITA M 379 ? 379 0.36.40
430 554 DEL CRAPPO GIOVANNI  36:42 ITA M 380 ? 380 0.36.42
431 726 BRONSINO FRANCESCA  36:52 ITA F 51 ? 51 0.36.52
432 127 VITTONE CHIRA  36:54 ITA F 52 ? 52 0.36.54
433 957 FUGIGLANDO PAOLO  36:59 ITA M 381 ? 381 0.36.59
434 763 COSTA GABRIELE  37:00 ITA M 382 ? 382 0.37.00
435 823 GIOVANNINI ALBERTO  37:01 ITA M 383 ? 383 0.37.01
436 232 CATALANO MARIA GRAZIELLA  37:03 ITA F 53 ? 53 0.37.03
437 221 SIRONI LUCA  37:03 ITA M 384 ? 384 0.37.03
438 792 POMERO SILVIA  37:03 ITA F 54 ? 54 0.37.03
439 963 ZADRO FEDERICA  37:04 ITA F 55 ? 55 0.37.04
440 718 VIVIANI RICCARDO  37:05 ITA M 385 ? 385 0.37.05
441 309 PIACENTE CLAUDIO  37:07 ITA M 386 ? 386 0.37.07
442 351 VIEIRA CINTHIA  37:09 ITA F 56 ? 56 0.37.09
443 59 ARDUINO RACHELE  37:15 ITA F 57 ? 57 0.37.15
444 346 FARINA DIEGO  37:20 ITA M 387 ? 387 0.37.20
445 158 BENOZZI GIOVANNI  37:20 ITA M 388 ? 388 0.37.20
446 45 DE MATTEIS FLAVIO  37:21 ITA M 389 ? 389 0.37.21
447 908 LERRE MARCO  37:24 ITA M 390 ? 390 0.37.24
448 237 CRICCO MARCO  37:25 ITA M 391 ? 391 0.37.25
449 618 MARCATI FERNANDO  37:25 ITA M 392 ? 392 0.37.25
450 451 FRASSON MARINO  37:26 ITA M 393 ? 393 0.37.26
451 713 MARRARI ROBERTO  37:28 ITA M 394 ? 394 0.37.28
452 76 CERESOLE DONATELLA  37:28 ITA F 58 ? 58 0.37.28
453 121 GARGANESE PAOLO  37:28 ITA M 395 ? 395 0.37.28
454 359 LOMARTIRE LORIS  37:29 ITA M 396 ? 396 0.37.29
455 264 DI STEFANO LUCA  37:35 ITA M 397 ? 397 0.37.35
456 163 BARATTERO MASSIMO  37:37 ITA M 398 ? 398 0.37.37
457 960 MANGINI ENRICO  37:37 ITA M 399 ? 399 0.37.37
458 28 MONTACCHINI PAOLA  37:40 ITA F 59 ? 59 0.37.40
459 447 PAOLUCCI ANTONIETTA  37:48 ITA F 60 ? 60 0.37.48
460 448 CUSCELA LORENZO  37:49 ITA M 400 ? 400 0.37.49
461 208 SARGIOTTO FEDERICO  37:49 ITA M 401 ? 401 0.37.49
462 830 GIUBERTONI STEFANO  37:50 ITA M 402 ? 402 0.37.50
463 332 PIOTTO MAURIZIO  37:51 ITA M 403 ? 403 0.37.51
464 742 TORTA CORRADO  38:02 ITA M 404 ? 404 0.38.02
465 613 FRANCHINI MASSIMILIANO  38:03 ITA M 405 ? 405 0.38.03
466 380 FERRETTI ANDRE'  38:04 ITA M 406 ? 406 0.38.04
467 606 ALBERA ROBERTO  38:04 ITA M 407 ? 407 0.38.04
468 667 PISANI LUCA  38:05 ITA M 408 ? 408 0.38.05
469 574 ABBENA ANDREA  38:05 ITA M 409 ? 409 0.38.05
470 685 GRAND BLANC ALFONSO  38:09 ITA M 410 ? 410 0.38.09
471 956 PEDERGNANA CRISTIAN  38:10 ITA M 411 ? 411 0.38.10
472 887 DEGIOVANNI MARCO  38:12 ITA M 412 ? 412 0.38.12
473 573 ROLLINO ANGELO  38:17 ITA M 413 ? 413 0.38.17
474 490 COLOMBATTO IVANA  38:18 ITA F 61 ? 61 0.38.18
475 491 FRONGIA STAFANO  38:19 ITA M 414 ? 414 0.38.19
476 798 CAUDANA VALERIO  38:22 ITA M 415 ? 415 0.38.22
477 794 PALOMBINO FRANCESCO  38:22 ITA M 416 ? 416 0.38.22
478 672 DAMANTE LAURA  38:25 ITA F 62 ? 62 0.38.25
479 38 BAVA MASSIMO  38:26 ITA M 417 ? 417 0.38.26
480 614 FRANCHINI MARCO  38:27 ITA M 418 ? 418 0.38.27
481 987 FAUSTINI ENRICO  38:28 ITA M 419 ? 419 0.38.28
482 217 DURANTE LUCA  38:28 ITA M 420 ? 420 0.38.28
483 218 BRUNO LUCA  38:29 ITA M 421 ? 421 0.38.29
484 797 PAVICH ELISABETTA  38:30 ITA F 63 ? 63 0.38.30
485 125 MONACO FRANCESCO  38:30 ITA M 422 ? 422 0.38.30
486 306 DEMICHELIS MASSIMO  38:31 ITA M 423 ? 423 0.38.31
487 567 PORPORATO DONATA  38:31 ITA F 64 ? 64 0.38.31
488 324 BRUNO MICHELE  38:32 ITA M 424 ? 424 0.38.32
489 79 GUIDOTTI IVANO  38:32 ITA M 425 ? 425 0.38.32
490 161 BORRONE ROBERTO  38:32 ITA M 426 ? 426 0.38.32
491 967 BUTTICE' MANUELA  38:33 ITA M 427 ? 427 0.38.33
492 772 RESTUCCIA ROSARIO  38:34 ITA M 428 ? 428 0.38.34
493 735 NAPPI ANDREA  38:35 ITA M 429 ? 429 0.38.35
494 345 MAZZUCCO GINO  38:36 ITA M 430 ? 430 0.38.36
495 298 BRUNI ORONZO  38:37 ITA M 431 ? 431 0.38.37
496 406 PEDRAZZANI GIANLUCA  38:38 ITA M 432 ? 432 0.38.38
497 347 PRISCO MARIA CRISTINA  38:39 ITA F 65 ? 65 0.38.39
498 360 APPIANO MATTEO  38:40 ITA M 433 ? 433 0.38.40
499 61 PIOPPI LORENA  38:43 ITA F 66 ? 66 0.38.43
500 849 GIODA FLAVIO  38:44 ITA M 434 ? 434 0.38.44
501 775 RICCOBENE ANDREA  38:46 ITA M 435 ? 435 0.38.46
502 770 DEFINIS DANIELE  38:48 ITA M 436 ? 436 0.38.48
503 438 VIANO FABRIZIO  38:49 ITA M 437 ? 437 0.38.49
504 598 CAPOBIANCO FABRIZIO  38:50 ITA M 438 ? 438 0.38.50
505 768 DEFINIS LUIGINA  38:50 ITA F 67 ? 67 0.38.50
506 450 BIRRO VALTER  38:51 ITA M 439 ? 439 0.38.51
507 341 PIRANI OLGA  38:53 ITA F 68 ? 68 0.38.53
508 374 BAI PAOLA  38:55 ITA F 69 ? 69 0.38.55
509 506 PISANI MATTEO  38:56 ITA M 440 ? 440 0.38.56
510 500 NTUK EFFIONG  38:56 ITA M 441 ? 441 0.38.56
511 499 TOMA MARIA LUIGIA  38:57 ITA F 70 ? 70 0.38.57
512 317 RAIMONDO UMBERTO MARIA  39:01 ITA M 442 ? 442 0.39.01
513 476 DELFINO GIULIANA  39:02 ITA F 71 ? 71 0.39.02
514 475 BUZZI SIMONETTA  39:02 ITA F 72 ? 72 0.39.02
515 622 BONITO GIUSEPPE  39:04 ITA M 443 ? 443 0.39.04
516 229 DI MURO VIVIANA  39:06 ITA F 73 ? 73 0.39.06
517 220 SABIONE CRISTIAN  39:10 ITA M 444 ? 444 0.39.10
518 479 CAPUTO TIZIANA  39:11 ITA F 74 ? 74 0.39.11
519 783 TAMIETTI VALERIO  39:11 ITA M 445 ? 445 0.39.11
520 316 CARLASSARA GIANCARLO  39:12 ITA M 446 ? 446 0.39.12
521 86 RIZZOLO EZIO  39:13 ITA M 447 ? 447 0.39.13
522 715 ARIETTI GIUSEPPE  39:15 ITA M 448 ? 448 0.39.15
523 786 CEDRINI ROBERTA  39:15 ITA F 75 ? 75 0.39.15
524 565 RICHETTA RENZO  39:22 ITA M 449 ? 449 0.39.22
525 224 TARASCO STEFANO  39:26 ITA M 450 ? 450 0.39.26
526 787 VACCA ANDREA  39:26 ITA M 451 ? 451 0.39.26
527 817 PIACENTE CARLO  39:27 ITA M 452 ? 452 0.39.27
528 829 MENZIO ANNA BIANCA  39:29 ITA F 76 ? 76 0.39.29
529 889 ESPOSITO CATERINA  39:29 ITA F 77 ? 77 0.39.29
530 124 TARDY ENRICO  39:29 ITA M 453 ? 453 0.39.29
531 412 VITALI EMANUELA  39:30 ITA F 78 ? 78 0.39.30
532 888 PILLAI DANIELA  39:30 ITA F 79 ? 79 0.39.30
533 596 BONA ANDREA  39:30 ITA M 454 ? 454 0.39.30
534 755 PEDULLA' MARCO  39:31 ITA M 455 ? 455 0.39.31
535 708 PALLADINO SANDRO  39:31 ITA M 456 ? 456 0.39.31
536 756 BRUNO ERNESTINA  39:31 ITA F 80 ? 80 0.39.31
537 707 DI BELLA ELENA  39:32 ITA F 81 ? 81 0.39.32
538 759 FRANCESCHINA PAOLA  39:32 ITA F 82 ? 82 0.39.32
539 905 MARTINA ANDREA  39:36 ITA M 457 ? 457 0.39.36
540 983 POLIDORI PIERGIOVANNI  39:38 ITA M 458 ? 458 0.39.38
541 982 SIRACUSA ROBERTO  39:38 ITA M 459 ? 459 0.39.38
542 95 MODICA FABIO  39:40 ITA M 460 ? 460 0.39.40
543 893 ROSSI BARBARA  39:41 ITA F 83 ? 83 0.39.41
544 315 MONTELEONE ANTONELLA  39:43 ITA F 84 ? 84 0.39.43
545 348 LANDO MARIA  39:45 ITA F 85 ? 85 0.39.45
546 353 QUARTARONE FRANCESCO  39:46 ITA M 461 ? 461 0.39.46
547 627 PERISSINOTTO VALERIO  39:50 ITA M 462 ? 462 0.39.50
548 684 PAOLINI PAOLA  39:50 ITA F 86 ? 86 0.39.50
549 973 PECORARO LARA  39:51 ITA F 87 ? 87 0.39.51
550 974 TABONE MARCO  39:52 ITA M 463 ? 463 0.39.52
551 254 GREGNANIN BARBARA  39:54 ITA F 88 ? 88 0.39.54
552 639 RICCI TIZIANO  39:57 ITA M 464 ? 464 0.39.57
553 681 PIODI GUIDO  39:59 ITA M 465 ? 465 0.39.59
554 226 BALMA ROBERTO  40:01 ITA M 466 ? 466 0.40.01
555 762 CORIELE FABIO  40:02 ITA M 467 ? 467 0.40.02
556 313 VARALLO LOREDANA  40:03 ITA F 89 ? 89 0.40.03
557 698 TRIVELLATO ANNA  40:03 ITA F 90 ? 90 0.40.03
558 910 SPINA ERICA  40:05 ITA F 91 ? 91 0.40.05
559 508 BONIARDI IVAN  40:06 ITA M 468 ? 468 0.40.06
560 465 PICCA GIANCARLO  40:07 ITA M 469 ? 469 0.40.07
561 355 DAZZARA RICCARDO  40:08 ITA M 470 ? 470 0.40.08
562 284 APPENDINO VALERIA  40:09 ITA F 92 ? 92 0.40.09
563 816 LAROCCA CLAUDIO  40:10 ITA M 471 ? 471 0.40.10
564 156 ROSSI GIOVANNI  40:16 ITA M 472 ? 472 0.40.16
565 322 BARUZZO MICHELA  40:21 ITA F 93 ? 93 0.40.21
566 209 TRIVI GAIA  40:25 ITA F 94 ? 94 0.40.25
567 210 TARICCO GAIA  40:25 ITA F 95 ? 95 0.40.25
568 382 GARDI CLAUDIA  40:27 ITA F 96 ? 96 0.40.27
569 446 D'AGOSTINO MICHELE  40:27 ITA M 473 ? 473 0.40.27
570 743 CARTA PEPPINETTO  40:28 ITA M 474 ? 474 0.40.28
571 744 PEPE PATRIZIA  40:28 ITA F 97 ? 97 0.40.28
572 616 LACCHE' IDA  40:29 ITA F 98 ? 98 0.40.29
573 384 FARACI VIVIANA  40:31 ITA F 99 ? 99 0.40.31
574 654 GHIBAUDO FABIO  40:31 ITA M 475 ? 475 0.40.31
575 370 BURLANDO MARA  40:32 ITA F 100 ? 100 0.40.32
576 566 D'ANGIERI SILVANA  40:32 ITA F 101 ? 101 0.40.32
577 461 ANSELMO SARA  40:34 ITA F 102 ? 102 0.40.34
578 730 GALGANI SILVANA  40:37 ITA F 103 ? 103 0.40.37
579 175 GIULIANO LAURA  40:41 ITA F 104 ? 104 0.40.41
580 150 LEVI FRANCESCA  40:43 ITA F 105 ? 105 0.40.43
581 980 GUGLIELMINO PAOLA  40:45 ITA F 106 ? 106 0.40.45
582 876 UGO ROBERTA  40:46 ITA F 107 ? 107 0.40.46
583 875 PAVANELLO GIANLUCA  40:46 ITA M 476 ? 476 0.40.46
584 387 ALLAIX ALBERTO  40:49 ITA M 477 ? 477 0.40.49
585 174 GIULIANO ROBERTA  40:52 ITA M 478 ? 478 0.40.52
586 559 BENTIVOGLIO PAOLA MARIA  40:55 ITA F 108 ? 108 0.40.55
587 656 ALOY MARCO  40:56 ITA M 479 ? 479 0.40.56
588 253 SAPONARA TOMMASO  40:56 ITA M 480 ? 480 0.40.56
589 704 VASCHETTO DIEGO  40:56 ITA M 481 ? 481 0.40.56
590 914 VILLANO ALESSIA  40:56 ITA F 109 ? 109 0.40.56
591 586 BALOCCO MASSIMO  40:57 ITA M 482 ? 482 0.40.57
592 89 SANGIANANTONI ENZA  40:59 ITA F 110 ? 110 0.40.59
593 497 DELFINO CLAUDIA  41:00 ITA F 111 ? 111 0.41.00
594 498 MARINO ELISABETTA  41:00 ITA F 112 ? 112 0.41.00
595 27 D'ASDIA ALFREDO  41:01 ITA F 113 ? 113 0.41.01
596 283 MELPIGNANO GIOVANNI  41:01 ITA M 483 ? 483 0.41.01
597 536 AGIATO GUIDO  41:02 ITA M 484 ? 484 0.41.02
598 965 GALIZIO CINZIA  41:04 ITA F 114 ? 114 0.41.04
599 883 ZANCANELLA NADIA  41:07 ITA F 115 ? 115 0.41.07
600 385 FRANZESE MARGHERITA  41:09 ITA F 116 ? 116 0.41.09
601 297 FERRARIS RICCARDO  41:10 ITA M 485 ? 485 0.41.10
602 994 ASTORE MICHELE  41:11 ITA M 486 ? 486 0.41.11
603 866 TREVISAN MARCO  41:11 ITA M 487 ? 487 0.41.11
604 286 BRACALONI GIANLUCA  41:14 ITA M 488 ? 488 0.41.14
605 407 CRACCO STEFANO  41:23 ITA M 489 ? 489 0.41.23
606 610 CRIVELLI CARLO  41:24 ITA M 490 ? 490 0.41.24
607 642 MOLINO MARCO  41:32 ITA M 491 ? 491 0.41.32
608 5 COPPOLA MICHELE  41:33 ITA M 492 ? 492 0.41.33
609 530 PIZZA ENRICO  41:33 ITA M 493 ? 493 0.41.33
610 553 GRECO KATIA  41:33 ITA F 117 ? 117 0.41.33
611 535 HALSMAN BETTY  41:35 ITA F 118 ? 118 0.41.35
612 523 GHERRA LORIS  41:35 ITA M 494 ? 494 0.41.35
613 971 MOLINARI DANIELA  41:43 ITA F 119 ? 119 0.41.43
614 946 PETULLA VALENTINA  41:46 ITA F 120 ? 120 0.41.46
615 532 SITZIA COSIMO  41:47 ITA M 495 ? 495 0.41.47
616 42 JANO CRISTINA  41:48 ITA F 121 ? 121 0.41.48
617 418 BALSARIN CLAUDIO  41:49 ITA M 496 ? 496 0.41.49
618 414 BORRONI DANIELE  41:49 ITA M 497 ? 497 0.41.49
619 911 BONINO MARINA  41:52 ITA F 122 ? 122 0.41.52
620 213 BARONIO PAOLO  41:58 ITA M 498 ? 498 0.41.58
621 216 BURLANDO PAOLO  41:59 ITA M 499 ? 499 0.41.59
622 420 RINALDO BERNARDO  42:02 ITA M 500 ? 500 0.42.02
623 421 CAMINITI MAURIZIO  42:02 ITA M 501 ? 501 0.42.02
624 520 BAIRO ALESSANDRA  42:02 ITA F 123 ? 123 0.42.02
625 865 TREVISAN ELENA  42:04 ITA F 124 ? 124 0.42.04
626 695 BRADY SIMONE  42:07 ITA F 125 ? 125 0.42.07
627 371 BAI MANUELA  42:07 ITA F 126 ? 126 0.42.07
628 804 LAZZARIN STEFANIA  42:11 ITA F 127 ? 127 0.42.11
629 803 LA ROSA TIZIANA  42:12 ITA F 128 ? 128 0.42.12
630 886 EMIPEO LAURA  42:14 ITA F 129 ? 129 0.42.14
631 651 OLIVA FRANCESCA  42:15 ITA F 130 ? 130 0.42.15
632 402 GUARESCHI GIULIANO  42:16 ITA M 502 ? 502 0.42.16
633 705 BUSTI ELISABETTA  42:19 ITA F 131 ? 131 0.42.19
634 809 CORA FABRIZIO  42:25 ITA M 503 ? 503 0.42.25
635 575 NARDINI MARCO  42:27 ITA M 504 ? 504 0.42.27
636 350 ASTEGIANO ALESSANDRA  42:28 ITA F 132 ? 132 0.42.28
637 811 BURASCHI GIULIANO  42:30 ITA M 505 ? 505 0.42.30
638 303 PELASSA LUCA  42:34 ITA M 506 ? 506 0.42.34
639 204 SALEMI ANDREA  42:34 ITA M 507 ? 507 0.42.34
640 205 VOLA VALERIA  42:34 ITA F 133 ? 133 0.42.34
641 296 DILEO ANDREA  42:34 ITA M 508 ? 508 0.42.34
642 295 DORETTO STEFANO  42:35 ITA M 509 ? 509 0.42.35
643 721 MAESTRO JAMES  42:36 ITA M 510 ? 510 0.42.36
644 628 CAVALLARO MARCO  42:36 ITA M 511 ? 511 0.42.36
645 338 DONATO ROSI  42:39 ITA F 134 ? 134 0.42.39
646 919 ALTEA FEDERICO  42:42 ITA M 512 ? 512 0.42.42
647 52 BERTARIONE ANNA  42:49 ITA F 135 ? 135 0.42.49
648 363 BERTOLETTI ELISA  42:50 ITA F 136 ? 136 0.42.50
649 486 BERTACCINI GIULIA  42:50 ITA F 137 ? 137 0.42.50
650 263 BALESTRI SILVIA  42:51 ITA F 138 ? 138 0.42.51
651 266 ANFOSSI CRISTIANO  42:53 ITA M 513 ? 513 0.42.53
652 405 RAIMONDI PAOLA  42:53 ITA F 139 ? 139 0.42.53
653 953 BARRA RENATO  42:53 ITA M 514 ? 514 0.42.53
654 954 RUZZON ROBERTA  42:54 ITA F 140 ? 140 0.42.54
655 63 EUSEBIONE SMERALDA  42:54 ITA F 141 ? 141 0.42.54
656 404 GHELLER GIANNA PAOLA  42:55 ITA F 142 ? 142 0.42.55
657 1000 FORNERIS PAOLO  42:57 ITA M 515 ? 515 0.42.57
658 996 MASSIMELLO MAURO  42:58 ITA M 516 ? 516 0.42.58
659 212 BEGGIATO ANTONELLA  42:59 ITA F 143 ? 143 0.42.59
660 258 COSTALAIA ANNA  43:03 ITA F 144 ? 144 0.43.03
661 944 OCCHETTI CRISTINA  43:04 ITA F 145 ? 145 0.43.04
662 64 ARMENI ROSA  43:05 ITA F 146 ? 146 0.43.05
663 349 MASSOLA SABRINA  43:08 ITA F 147 ? 147 0.43.08
664 939 VILLA FABRIZIO  43:12 ITA M 517 ? 517 0.43.12
665 197 VITALE SALVATORE  43:16 ITA M 518 ? 518 0.43.16
666 477 BRUNAT BARBARA  43:17 ITA F 148 ? 148 0.43.17
667 343 GIBBIN MARTA  43:19 ITA F 149 ? 149 0.43.19
668 918 CONTI FAUSTO  43:20 ITA M 519 ? 519 0.43.20
669 686 BUCZKOWSKY STEFANO  43:22 ITA M 520 ? 520 0.43.22
670 884 VOGHERA CLAUDIO  43:23 ITA M 521 ? 521 0.43.23
671 634 ROSSI EVITA  43:24 ITA F 150 ? 150 0.43.24
672 676 PAVESE VALERIA  43:26 ITA F 151 ? 151 0.43.26
673 615 POZZA LORENZO  43:26 ITA M 522 ? 522 0.43.26
674 72 PIOVANO GIULIA  43:26 ITA F 152 ? 152 0.43.26
675 225 GATTULLO SERGIO  43:30 ITA M 523 ? 523 0.43.30
676 791 GARBO EMILIANA  43:36 ITA F 153 ? 153 0.43.36
677 789 FILIPELLO PAOLA  43:36 ITA F 154 ? 154 0.43.36
678 168 PICCO CHANTAL  43:37 ITA F 155 ? 155 0.43.37
679 902 SPIRITO GAETANO  43:38 ITA M 524 ? 524 0.43.38
680 626 TROMBETTA LAURA  43:41 ITA F 156 ? 156 0.43.41
681 922 MAGOSSO PAOLA  43:41 ITA F 157 ? 157 0.43.41
682 997 COMPOSITO GIORGIA  43:49 ITA F 158 ? 158 0.43.49
683 308 TIRELLO GABRIELLA  43:51 ITA F 159 ? 159 0.43.51
684 467 RAVINALE LUCA  43:54 ITA M 525 ? 525 0.43.54
685 464 VALENTINI GIUSEPPE  43:54 ITA M 526 ? 526 0.43.54
686 900 DI MAURO CRISTINA  43:54 ITA F 160 ? 160 0.43.54
687 114 BELLO ELENA  44:04 ITA F 161 ? 161 0.44.04
688 711 MACCARONE PIETRO  44:18 ITA M 527 ? 527 0.44.18
689 906 MARTINA GIORGIO  44:21 ITA M 528 ? 528 0.44.21
690 747 GIACCHINO BRUNO  44:25 ITA M 529 ? 529 0.44.25
691 761 PALIN MASSIMO  44:29 ITA M 530 ? 530 0.44.29
692 930 FERRERO MANUEL FURIO  44:35 ITA M 531 ? 531 0.44.35
693 625 TINTEA MANUEL MIHAI  44:36 ITA M 532 ? 532 0.44.36
694 116 LANZA FABIO  44:45 ITA M 533 ? 533 0.44.45
695 117 SERAFINO MANUELA  44:46 ITA F 162 ? 162 0.44.46
696 958 DE ROSA LAURA  44:46 ITA F 163 ? 163 0.44.46
697 959 BARRETTA RINO  44:47 ITA M 534 ? 534 0.44.47
698 720 CLEMENTE COSIMO  44:48 ITA M 535 ? 535 0.44.48
699 376 PERSEGHIN EMANUELA  44:48 ITA F 164 ? 164 0.44.48
700 945 GIOELLI FABRIZIO  44:56 ITA M 536 ? 536 0.44.56
701 779 BERGESIO ROBERTO  44:58 ITA M 537 ? 537 0.44.58
702 780 LAURI PAOLO  44:59 ITA M 538 ? 538 0.44.59
703 947 TABACCHI VALENTINA  45:07 ITA F 165 ? 165 0.45.07
704 255 BAUDINO MARCO  45:08 ITA M 539 ? 539 0.45.08
705 248 GIULIANO MARIA FINIZIA  45:12 ITA F 166 ? 166 0.45.12
706 397 CORIASSO CLAUDIO  45:13 ITA M 540 ? 540 0.45.13
707 478 BEOZZO ERIKA  45:17 ITA F 167 ? 167 0.45.17
708 439 GERMANI MARIKA  45:24 ITA F 168 ? 168 0.45.24
709 697 AQUILINA CRISTINA  45:26 ITA F 169 ? 169 0.45.26
710 867 FINI CHIARA  45:26 ITA F 170 ? 170 0.45.26
711 437 COLUCCI PATRIZIA  45:27 ITA F 171 ? 171 0.45.27
712 379 GIORGI LUIGI  45:29 ITA M 541 ? 541 0.45.29
713 269 REGINATO INGEBORG  45:30 ITA F 172 ? 172 0.45.30
714 261 BORMIDA ANTONELLA  45:31 ITA F 173 ? 173 0.45.31
715 915 DEL SIGNORE MAURO  45:32 ITA M 542 ? 542 0.45.32
716 362 BIAGETTI CRISTIANA  45:32 ITA F 174 ? 174 0.45.32
717 619 BERGOGLIO ROBERTO  45:32 ITA M 543 ? 543 0.45.32
718 641 GRASSO FEDERICO  45:33 ITA M 544 ? 544 0.45.33
719 247 CANNONE NUNZIO  45:36 ITA M 545 ? 545 0.45.36
720 71 DE ANDREIS CAROLINA  45:36 ITA F 175 ? 175 0.45.36
721 200 MARCHETTA VALENTINA  45:36 ITA F 176 ? 176 0.45.36
722 442 GERVASI IRENE  45:39 ITA F 177 ? 177 0.45.39
723 401 MUSSO GIANCARLO  45:40 ITA M 546 ? 546 0.45.40
724 857 TESTI DANIELA  45:51 ITA F 178 ? 178 0.45.51
725 46 LEVIN ANDREA  45:53 ITA F 179 ? 179 0.45.53
726 537 FALCHERO SIMONA  45:57 ITA F 180 ? 180 0.45.57
727 981 GAGLIAZZO GIOVANNI  45:57 ITA M 547 ? 547 0.45.57
728 494 SCOTTI GIULIANA  45:58 ITA F 181 ? 181 0.45.58
729 666 BECCUTI CAROLA  45:59 ITA F 182 ? 182 0.45.59
730 855 ANSELMETTI EMANUELA  46:11 ITA F 183 ? 183 0.46.11
731 858 CAGLIERIS MARIELLA  46:13 ITA F 184 ? 184 0.46.13
732 482 PETTITI MARIANGELA  46:15 ITA F 185 ? 185 0.46.15
733 694 FAHEY DIANA  46:16 ITA F 186 ? 186 0.46.16
734 579 CHIARAMELLO DAVIDE  46:20 ITA M 548 ? 548 0.46.20
735 580 MONTRUCCHIO CHIARA  46:21 ITA F 187 ? 187 0.46.21
736 851 SESIA LARA  46:22 ITA F 188 ? 188 0.46.22
737 267 ROSSINI ANTONELLA  46:22 ITA F 189 ? 189 0.46.22
738 390 AGUZZOLI GUIDO  46:23 ITA M 549 ? 549 0.46.23
739 661 ABBO LUCA  46:23 ITA M 550 ? 550 0.46.23
740 300 GIATTI GRAZIELLA  46:29 ITA F 190 ? 190 0.46.29
741 481 ALBANO ALESSANDRO  46:29 ITA M 551 ? 551 0.46.29
742 773 CORVASCE DIEGO  46:38 ITA M 552 ? 552 0.46.38
743 129 CONSALES MARIA ROSARIA  46:40 ITA F 191 ? 191 0.46.40
744 265 CAMANI SIMONA  46:47 ITA F 192 ? 192 0.46.47
745 270 REGINATO LUCA  46:48 ITA M 553 ? 553 0.46.48
746 112 MANELLO CARLA  46:51 ITA F 193 ? 193 0.46.51
747 466 SARTI ELENA  46:52 ITA F 194 ? 194 0.46.52
748 468 RICCO SABRINA  46:52 ITA F 195 ? 195 0.46.52
749 986 TOCE ROSARIO  46:53 ITA M 554 ? 554 0.46.53
750 428 GARCIA ELVA  46:54 ITA F 196 ? 196 0.46.54
751 344 FARES UMBERTO  46:57 ITA M 555 ? 555 0.46.57
752 990 CAPALBO FRANCO  46:59 ITA M 556 ? 556 0.46.59
753 872 GIACOMETTO CRISTINA  46:59 ITA F 197 ? 197 0.46.59
754 736 TARDITI SANDRA  47:02 ITA F 198 ? 198 0.47.02
755 609 SARACCO ELISABETTA  47:03 ITA F 199 ? 199 0.47.03
756 354 SIRAGUSA ROBERTA  47:03 ITA F 200 ? 200 0.47.03
757 765 GHERZI FULVIA  47:04 ITA F 201 ? 201 0.47.04
758 578 APPROSIO CRISTINA  47:10 ITA F 202 ? 202 0.47.10
759 826 CARNINO VANESSA  47:18 ITA F 203 ? 203 0.47.18
760 827 DELCRE' GABRIELLA  47:18 ITA F 204 ? 204 0.47.18
761 305 SANTUCCI MARIO ROBERTO  47:28 ITA M 557 ? 557 0.47.28
762 372 FASSI SILVIA  47:38 ITA F 205 ? 205 0.47.38
763 488 FASSINO PAOLA  47:40 ITA F 206 ? 206 0.47.40
764 198 VITALE CECILIA  47:40 ITA F 207 ? 207 0.47.40
765 904 GIUDICE ANDREA  47:44 ITA M 558 ? 558 0.47.44
766 637 PERETTI CLAUDIO  47:47 ITA M 559 ? 559 0.47.47
767 650 TURCO CARLO  48:26 ITA M 560 ? 560 0.48.26
768 472 SCOPELLITI ANTONINO  49:08 ITA M 561 ? 561 0.49.08
769 227 TARAGNA FRANCO  49:12 ITA M 562 ? 562 0.49.12
770 585 CATAPANO PAOLO  49:13 ITA M 563 ? 563 0.49.13
771 273 LORU LILIANA  49:13 ITA F 208 ? 208 0.49.13
772 272 LORU DEBORA  49:13 ITA F 209 ? 209 0.49.13
773 892 BEVILACQUA CAROLINA  49:16 ITA F 210 ? 210 0.49.16
774 105 DI DONATO GIUSEPPINA  49:17 ITA F 211 ? 211 0.49.17
775 752 ROMEO VERONICAI  49:17 ITA F 212 ? 212 0.49.17
776 739 MONTIROSI MARCO  49:18 ITA M 564 ? 564 0.49.18
777 110 ARDU ALESSANDRA  49:20 ITA F 213 ? 213 0.49.20
778 688 CAVAGNERO TIZIANA  49:24 ITA F 214 ? 214 0.49.24
779 687 CHIESA TERESA  49:24 ITA F 215 ? 215 0.49.24
780 890 BEVILACQUA FRANCESCA  49:31 ITA F 216 ? 216 0.49.31
781 903 MARTINA SILVIA  49:31 ITA F 217 ? 217 0.49.31
782 917 DISILLUSO LUCIA  49:39 ITA F 218 ? 218 0.49.39
783 426 DI GIACOMANTONIO SANTINA  49:50 ITA F 219 ? 219 0.49.50
784 400 VERDERONE LAURA  50:04 ITA F 220 ? 220 0.50.04
785 1 TROMBETTA GIULIO  50:28 ITA M 565 ? 565 0.50.28
786 463 ZARDI IVANO  50:28 ITA M 566 ? 566 0.50.28
787 907 BISIGNANO GIUSI  50:34 ITA F 221 ? 221 0.50.34
788 539 GROSSO SARA  50:35 ITA F 222 ? 222 0.50.35
789 861 PUCCI LAURA  50:44 ITA F 223 ? 223 0.50.44
790 952 ODDENINO PATRIZIA  50:50 ITA F 224 ? 224 0.50.50
791 671 BECCUTI LORENZO  51:15 ITA M 567 ? 567 0.51.15
792 774 DRAGO ALESSANDRO  51:31 ITA M 568 ? 568 0.51.31
793 777 BARBARINO MARGHERITA  51:32 ITA F 225 ? 225 0.51.32
794 653 BARRESI ENZA  51:49 ITA F 226 ? 226 0.51.49
795 369 LORU PATRIZIA  51:50 ITA F 227 ? 227 0.51.50
796 239 RENDINELLI ALESSANDRO  52:05 ITA M 569 ? 569 0.52.05
797 584 RADICE SILVIA  52:07 ITA F 228 ? 228 0.52.07
798 583 MOLINARO SILVIA  52:07 ITA F 229 ? 229 0.52.07
799 411 FRANCAVILLA CONCETTA  52:22 ITA F 230 ? 230 0.52.22
800 630 BECCUTI CESARE  52:24 ITA M 570 ? 570 0.52.24
801 670 MIRANDA MARIA ELENA  52:32 ITA F 231 ? 231 0.52.32
802 664 RASTELLI ELISABETTA  52:35 ITA F 232 ? 232 0.52.35
803 115 CONSALES ANTONELLA  52:36 ITA F 233 ? 233 0.52.36
804 389 NICOLAU FLORIN  53:03 ITA M 571 ? 571 0.53.03
805 604 BONOMI EUGENIO  53:03 ITA M 572 ? 572 0.53.03
806 605 MONDIINO ANDREA  53:03 ITA M 573 ? 573 0.53.03
807 985 GIACOSA DONATELLA  53:13 ITA F 234 ? 234 0.53.13
808 874 CHIANTARETTO ROBERTA  53:30 ITA F 235 ? 235 0.53.30
809 214 PALMA PIERA  53:30 ITA F 236 ? 236 0.53.30
810 854 LISA ANNA ROSA  53:30 ITA F 237 ? 237 0.53.30
811 215 BARONIO GIULIANA  53:30 ITA F 238 ? 238 0.53.30
812 799 BILI ANTONELLA  53:35 ITA F 239 ? 239 0.53.35
813 655 CURLETTI ALESSANDRA  53:42 ITA F 240 ? 240 0.53.42
814 741 BONFIGLIOLI ROBERTA  53:46 ITA F 241 ? 241 0.53.46
815 748 RIOLO SALVATORE  53:47 ITA M 574 ? 574 0.53.47
816 751 FERRERA ANTONIETTA  53:47 ITA F 242 ? 242 0.53.47
817 754 SOLA FLORINDA  54:06 ITA F 243 ? 243 0.54.06
818 753 NAFO DAVIDE  54:07 ITA M 575 ? 575 0.54.07
819 949 STROPPIANA ROBERTA  54:23 ITA F 244 ? 244 0.54.23